Time;durP1;ratioP1;P1;durP2;ratioP2;P2;SDS_P1;SDS_P2;PMS_P1;PMS_P2;Temp;Humidity;BMP_temperature;BMP_pressure;BME280_temperature;BME280_humidity;BME280_pressure;Samples;Min_cycle;Max_cycle;Signal;HPM_P1;HPM_P2
2024/03/26 00:00:37;;;;;;;29.92;15.38;;;;;;;2.46;61.52;99268.00;5042562;28;20515;-71
2024/03/26 00:03:04;;;;;;;31.50;15.98;;;;;;;2.54;61.14;99283.53;5042579;28;20525;-72
2024/03/26 00:05:30;;;;;;;32.53;15.45;;;;;;;2.60;61.49;99300.78;5027895;28;20679;-71
2024/03/26 00:07:56;;;;;;;26.73;14.80;;;;;;;2.60;61.03;99317.03;5075656;28;20041;-71
2024/03/26 00:10:23;;;;;;;31.02;14.98;;;;;;;2.59;61.24;99311.88;5058229;28;20040;-71
2024/03/26 00:12:50;;;;;;;30.20;14.43;;;;;;;2.43;61.07;99303.06;5058751;28;20132;-70
2024/03/26 00:15:16;;;;;;;26.83;14.88;;;;;;;1.96;61.56;99245.81;5043366;28;20052;-70
2024/03/26 00:17:42;;;;;;;26.10;14.50;;;;;;;1.96;61.53;99253.53;5044075;28;20052;-72
2024/03/26 00:20:09;;;;;;;26.52;13.70;;;;;;;2.20;61.55;99295.84;5026940;28;20047;-71
2024/03/26 00:22:35;;;;;;;26.95;12.77;;;;;;;2.02;61.70;99274.16;5027531;28;20037;-71
2024/03/26 00:25:01;;;;;;;29.20;13.90;;;;;;;2.15;61.28;99289.75;5041943;28;20127;-71
2024/03/26 00:27:31;;;;;;;33.45;14.57;;;;;;;2.12;61.99;99306.00;5027059;28;20602;-73
2024/03/26 00:29:57;;;;;;;20.73;10.55;;;;;;;1.94;61.91;99289.44;5043739;28;20511;-72
2024/03/26 00:32:23;;;;;;;23.20;10.82;;;;;;;2.22;61.78;99324.97;5056943;28;20106;-72
2024/03/26 00:34:49;;;;;;;20.42;10.65;;;;;;;2.09;61.74;99299.13;5040891;28;20087;-70
2024/03/26 00:37:16;;;;;;;22.83;12.07;;;;;;;2.20;62.13;99326.66;5058964;28;20046;-70
2024/03/26 00:39:44;;;;;;;28.88;12.35;;;;;;;2.14;61.62;99335.13;5028269;28;20052;-71
2024/03/26 00:42:10;;;;;;;25.83;11.38;;;;;;;1.90;62.33;99294.47;5031659;28;20039;-72
2024/03/26 00:44:36;;;;;;;25.50;12.70;;;;;;;2.07;62.01;99321.31;5076427;28;20047;-70
2024/03/26 00:47:03;;;;;;;23.48;10.32;;;;;;;2.18;62.20;99336.03;5043481;28;20077;-69
2024/03/26 00:49:29;;;;;;;25.00;12.15;;;;;;;2.04;61.72;99315.25;5043573;28;20047;-71
2024/03/26 00:51:55;;;;;;;21.67;9.48;;;;;;;2.14;62.37;99330.00;5031744;28;20039;-70
2024/03/26 00:54:21;;;;;;;16.42;9.02;;;;;;;1.86;62.49;99282.44;5028115;28;20050;-71
2024/03/26 00:56:47;;;;;;;17.00;8.73;;;;;;;2.21;62.03;99346.34;5044976;28;20033;-71
2024/03/26 00:59:13;;;;;;;16.55;9.07;;;;;;;1.78;62.69;99285.72;5038439;28;20044;-72
2024/03/26 01:01:39;;;;;;;18.55;8.85;;;;;;;2.18;61.99;99346.31;5073861;28;20414;-71
2024/03/26 01:04:05;;;;;;;15.65;8.45;;;;;;;2.06;62.42;99340.13;5055664;28;20055;-71
2024/03/26 01:06:31;;;;;;;20.65;9.35;;;;;;;2.07;62.51;99331.59;5073997;28;21553;-70
2024/03/26 01:08:57;;;;;;;21.20;9.18;;;;;;;1.95;62.42;99301.44;5074451;28;20068;-71
2024/03/26 01:11:23;;;;;;;20.10;9.77;;;;;;;2.22;62.46;99328.41;5033260;28;20052;-69
2024/03/26 01:13:52;;;;;;;16.80;8.73;;;;;;;2.32;62.11;99346.53;5057030;28;20094;-70
2024/03/26 01:16:18;;;;;;;14.88;8.15;;;;;;;2.24;62.46;99320.75;5054191;28;20059;-70
2024/03/26 01:18:44;;;;;;;17.55;7.63;;;;;;;2.39;62.70;99332.97;5045132;28;20052;-73
2024/03/26 01:21:10;;;;;;;17.38;7.82;;;;;;;2.47;62.30;99330.53;5046347;28;20032;-70
2024/03/26 01:23:36;;;;;;;14.82;7.18;;;;;;;2.52;62.54;99340.03;5043645;28;20044;-70
2024/03/26 01:26:03;;;;;;;13.80;7.72;;;;;;;2.57;62.41;99337.53;5054657;28;20093;-70
2024/03/26 01:28:29;;;;;;;13.95;6.95;;;;;;;2.69;62.60;99345.47;5055924;28;20507;-70
2024/03/26 01:30:55;;;;;;;12.80;6.47;;;;;;;2.59;62.13;99328.16;5034233;28;20043;-71
2024/03/26 01:33:20;;;;;;;12.65;7.30;;;;;;;2.61;62.29;99321.34;5058702;28;20063;-72
2024/03/26 01:35:51;;;;;;;16.80;7.50;;;;;;;2.58;62.38;99305.88;5059589;28;20040;-71
2024/03/26 01:38:17;;;;;;;12.60;6.95;;;;;;;2.84;62.28;99352.53;5077106;28;20546;-70
2024/03/26 01:40:43;;;;;;;16.88;7.22;;;;;;;2.92;61.54;99351.78;5033262;28;20058;-72
2024/03/26 01:43:09;;;;;;;16.70;7.82;;;;;;;2.96;61.76;99357.00;5044963;28;20037;-73
2024/03/26 01:45:35;;;;;;;16.40;8.05;;;;;;;2.88;62.49;99350.88;5061413;28;20048;-72
2024/03/26 01:48:03;;;;;;;16.63;7.40;;;;;;;2.96;61.62;99351.00;5062885;28;20143;-70
2024/03/26 01:50:30;;;;;;;18.05;8.20;;;;;;;2.70;61.69;99311.22;5034320;28;20048;-73
2024/03/26 01:52:57;;;;;;;17.63;7.85;;;;;;;2.83;61.44;99330.25;5046625;28;20066;-72
2024/03/26 01:55:24;;;;;;;16.67;7.55;;;;;;;2.61;61.56;99302.50;5019826;28;20498;-73
2024/03/26 01:57:51;;;;;;;17.15;7.97;;;;;;;2.62;62.01;99305.09;5051286;28;20068;-75
2024/03/26 02:00:20;;;;;;;17.15;7.45;;;;;;;2.86;61.96;99347.41;5069280;28;20094;-75
2024/03/26 02:02:50;;;;;;;14.57;7.00;;;;;;;2.88;61.65;99348.31;5046905;28;20040;-76
2024/03/26 02:05:16;;;;;;;19.60;7.28;;;;;;;2.95;61.51;99369.81;5048158;28;20048;-75
2024/03/26 02:07:42;;;;;;;17.55;7.88;;;;;;;2.92;61.64;99356.91;5028934;28;20079;-77
2024/03/26 02:10:15;;;;;;;14.85;8.13;;;;;;;2.72;61.49;99331.78;5049233;28;20407;-74
2024/03/26 02:12:41;;;;;;;15.23;7.65;;;;;;;2.77;61.67;99340.44;5053612;28;20040;-75
2024/03/26 02:15:07;;;;;;;14.25;7.57;;;;;;;2.85;61.50;99367.13;5050721;28;20036;-75
2024/03/26 02:17:34;;;;;;;16.63;7.80;;;;;;;2.89;61.72;99377.44;5034558;28;20583;-75
2024/03/26 02:20:01;;;;;;;14.32;7.55;;;;;;;2.89;61.94;99370.59;5039287;28;20035;-74
2024/03/26 02:22:32;;;;;;;15.20;8.07;;;;;;;2.81;61.37;99360.22;5061092;28;20032;-73
2024/03/26 02:24:58;;;;;;;18.48;8.43;;;;;;;2.77;60.98;99355.84;5058982;28;20119;-73
2024/03/26 02:27:24;;;;;;;15.00;7.88;;;;;;;2.75;61.48;99362.66;5045938;28;20028;-75
2024/03/26 02:29:50;;;;;;;14.82;8.05;;;;;;;2.57;61.06;99345.25;5032901;28;20554;-74
2024/03/26 02:32:16;;;;;;;16.85;8.15;;;;;;;2.74;61.52;99378.06;5047368;28;20135;-73
2024/03/26 02:34:43;;;;;;;16.02;8.43;;;;;;;2.76;61.41;99381.53;5060398;28;20048;-76
2024/03/26 02:37:09;;;;;;;14.48;7.82;;;;;;;2.71;61.56;99377.19;5050692;28;20486;-76
2024/03/26 02:39:35;;;;;;;11.75;7.45;;;;;;;2.53;61.08;99343.50;5060431;28;20036;-74
2024/03/26 02:42:02;;;;;;;12.02;7.55;;;;;;;2.64;61.55;99359.94;5078446;28;20044;-74
2024/03/26 02:44:28;;;;;;;12.68;6.55;;;;;;;2.71;61.49;99366.03;5062990;28;20040;-75
2024/03/26 02:46:54;;;;;;;11.27;6.70;;;;;;;2.73;61.66;99368.63;5047082;28;20068;-74
2024/03/26 02:49:20;;;;;;;11.82;7.03;;;;;;;2.48;61.45;99320.28;5041069;28;20040;-74
2024/03/26 02:51:46;;;;;;;13.35;7.57;;;;;;;2.52;61.13;99336.63;5058208;28;20045;-73
2024/03/26 02:54:12;;;;;;;12.65;7.38;;;;;;;2.55;61.65;99331.50;5077779;28;20186;-74
2024/03/26 02:56:41;;;;;;;16.70;8.27;;;;;;;2.76;61.57;99364.41;5062781;28;20043;-75
2024/03/26 02:59:07;;;;;;;14.77;8.65;;;;;;;2.79;61.68;99373.84;5049141;28;20532;-76
2024/03/26 03:01:33;;;;;;;16.33;8.07;;;;;;;2.88;61.59;99386.84;5045309;28;20045;-76
2024/03/26 03:03:59;;;;;;;12.45;7.70;;;;;;;2.90;61.39;99389.44;5032036;28;20058;-75
2024/03/26 03:06:26;;;;;;;14.52;7.70;;;;;;;2.83;61.89;99381.66;5034820;28;20467;-75
2024/03/26 03:08:53;;;;;;;13.18;7.72;;;;;;;2.96;61.50;99395.56;5034009;28;20083;-74
2024/03/26 03:11:19;;;;;;;11.02;7.57;;;;;;;2.97;61.70;99386.13;5050880;28;20058;-75
2024/03/26 03:13:45;;;;;;;13.48;7.55;;;;;;;2.95;61.19;99378.41;5036773;28;20044;-77
2024/03/26 03:16:11;;;;;;;13.90;8.48;;;;;;;3.13;61.80;99398.38;5035825;28;20037;-76
2024/03/26 03:18:37;;;;;;;16.33;8.13;;;;;;;2.87;62.11;99359.44;5047059;28;20075;-74
2024/03/26 03:21:04;;;;;;;18.23;9.10;;;;;;;3.12;61.70;99391.50;5046491;28;20064;-74
2024/03/26 03:23:30;;;;;;;16.88;9.80;;;;;;;3.22;61.68;99407.94;5031839;28;20071;-77
2024/03/26 03:25:57;;;;;;;14.77;8.65;;;;;;;3.25;61.40;99413.13;5047355;28;20040;-74
2024/03/26 03:28:23;;;;;;;14.32;9.05;;;;;;;3.16;60.98;99401.00;5076135;28;20043;-74
2024/03/26 03:30:51;;;;;;;12.90;9.18;;;;;;;3.28;61.25;99415.75;5059154;28;20032;-76
2024/03/26 03:33:17;;;;;;;17.48;8.82;;;;;;;3.33;61.04;99409.81;5044189;28;20047;-77
2024/03/26 03:35:43;;;;;;;16.35;10.15;;;;;;;3.06;61.00;99364.84;5044863;28;20040;-76
2024/03/26 03:38:09;;;;;;;17.65;10.35;;;;;;;3.16;60.66;99374.44;5047452;28;20059;-77
2024/03/26 03:40:36;;;;;;;17.65;12.05;;;;;;;3.46;61.33;99411.69;5053935;28;20032;-75
2024/03/26 03:43:03;;;;;;;18.00;10.45;;;;;;;3.51;61.11;99417.78;5044200;28;20067;-76
2024/03/26 03:45:30;;;;;;;21.13;10.25;;;;;;;3.14;60.94;99352.97;5047247;28;20112;-75
2024/03/26 03:47:56;;;;;;;14.98;8.45;;;;;;;3.41;61.12;99409.06;5056052;28;20286;-74
2024/03/26 03:50:23;;;;;;;15.48;8.25;;;;;;;3.41;60.81;99405.63;5056163;28;20051;-75
2024/03/26 03:52:49;;;;;;;14.88;8.15;;;;;;;3.54;60.64;99437.53;5037876;28;20119;-76
2024/03/26 03:55:15;;;;;;;16.88;8.40;;;;;;;3.51;60.68;99412.63;5054897;28;20127;-75
2024/03/26 03:57:44;;;;;;;17.17;8.02;;;;;;;3.49;60.74;99404.03;5054916;28;20561;-75
2024/03/26 04:00:10;;;;;;;15.13;8.73;;;;;;;3.36;60.62;99386.69;5053610;28;20131;-76
2024/03/26 04:02:40;;;;;;;14.15;8.35;;;;;;;3.74;60.71;99430.06;5058798;28;20037;-75
2024/03/26 04:05:06;;;;;;;14.10;7.47;;;;;;;3.70;60.35;99428.31;5043173;28;20045;-74
2024/03/26 04:07:34;;;;;;;16.83;8.18;;;;;;;3.85;60.59;99443.09;5053160;28;20062;-74
2024/03/26 04:10:01;;;;;;;16.00;7.57;;;;;;;3.80;60.47;99419.00;5056567;28;20040;-74
2024/03/26 04:12:29;;;;;;;13.10;7.80;;;;;;;3.97;60.40;99429.50;5071065;28;20037;-75
2024/03/26 04:14:55;;;;;;;12.32;8.45;;;;;;;4.10;60.41;99443.38;5041758;28;20041;-74
2024/03/26 04:17:21;;;;;;;13.90;8.52;;;;;;;3.97;60.27;99408.91;5056856;28;20032;-73
2024/03/26 04:19:47;;;;;;;81.97;43.00;;;;;;;4.05;60.05;99415.03;5054951;28;20487;-75
2024/03/26 04:22:13;;;;;;;12.82;8.77;;;;;;;4.16;60.35;99408.25;5055778;28;20045;-74
2024/03/26 04:24:39;;;;;;;12.98;8.02;;;;;;;3.95;60.00;99390.88;5055652;28;20517;-75
2024/03/26 04:27:05;;;;;;;12.63;7.50;;;;;;;4.14;60.35;99412.53;5043232;28;20040;-73
2024/03/26 04:29:31;;;;;;;12.77;7.72;;;;;;;4.13;59.95;99409.94;5040913;28;20411;-76
2024/03/26 04:31:57;;;;;;;11.77;7.45;;;;;;;4.21;59.64;99411.75;5053198;28;20415;-76
2024/03/26 04:34:23;;;;;;;12.13;7.75;;;;;;;4.40;59.52;99432.56;5042725;28;20052;-75
2024/03/26 04:36:59;;;;;;;11.07;7.32;;;;;;;4.37;59.77;99443.72;5053184;28;20079;-74
2024/03/26 04:39:25;;;;;;;11.88;7.75;;;;;;;4.40;59.38;99442.88;5074717;28;20060;-76
2024/03/26 04:41:51;;;;;;;12.55;7.22;;;;;;;4.40;59.42;99424.81;5075345;28;20037;-76
2024/03/26 04:44:17;;;;;;;17.25;7.20;;;;;;;4.52;58.52;99426.66;5060234;28;20060;-75
2024/03/26 04:46:44;;;;;;;14.40;7.03;;;;;;;4.61;59.24;99433.63;5046477;28;20138;-76
2024/03/26 04:49:12;;;;;;;13.98;7.70;;;;;;;4.75;59.02;99411.41;5073765;28;20032;-74
2024/03/26 04:51:38;;;;;;;10.48;6.47;;;;;;;5.14;58.89;99442.66;5057179;28;20044;-76
2024/03/26 04:54:05;;;;;;;14.30;7.18;;;;;;;5.51;59.20;99442.03;5076336;28;20071;-76
2024/03/26 04:56:31;;;;;;;11.43;6.45;;;;;;;5.54;58.71;99404.19;5058701;28;20147;-75
2024/03/26 04:59:00;;;;;;;11.45;6.45;;;;;;;6.04;58.05;99438.03;5060506;28;20032;-76
2024/03/26 05:01:29;;;;;;;18.42;7.18;;;;;;;6.19;57.76;99419.13;5048351;28;20113;-78
2024/03/26 05:03:55;;;;;;;11.55;6.47;;;;;;;6.49;57.68;99440.75;5060648;28;20122;-75
2024/03/26 05:06:22;;;;;;;12.10;5.88;;;;;;;6.65;57.65;99430.44;5048517;28;20045;-74
2024/03/26 05:08:47;;;;;;;18.23;14.02;;;;;;;6.80;56.60;99422.69;5078083;28;20064;-79
2024/03/26 05:11:14;;;;;;;10.40;7.28;;;;;;;7.03;56.35;99433.06;5058220;28;20375;-74
2024/03/26 05:13:40;;;;;;;12.07;7.13;;;;;;;7.00;56.45;99412.34;5061006;28;20037;-75
2024/03/26 05:16:08;;;;;;;11.38;7.32;;;;;;;7.24;56.03;99447.69;5064459;28;20044;-75
2024/03/26 05:18:35;;;;;;;12.88;7.05;;;;;;;7.15;55.08;99439.06;5039937;28;20170;-76
2024/03/26 05:21:01;;;;;;;12.80;7.32;;;;;;;7.17;55.20;99452.88;5042747;28;20410;-77
2024/03/26 05:23:27;;;;;;;11.40;7.10;;;;;;;7.05;55.13;99436.50;5046790;28;20115;-77
2024/03/26 05:25:53;;;;;;;11.32;7.30;;;;;;;7.12;54.50;99421.81;5077841;28;20044;-75
2024/03/26 05:28:22;;;;;;;10.13;7.05;;;;;;;7.31;54.46;99433.00;5075839;28;20032;-74
2024/03/26 05:30:49;;;;;;;11.43;7.60;;;;;;;7.63;54.29;99442.44;5043819;28;20682;-74
2024/03/26 05:33:16;;;;;;;13.60;7.35;;;;;;;7.89;54.26;99444.09;5074118;28;20040;-74
2024/03/26 05:35:43;;;;;;;15.60;7.63;;;;;;;8.19;53.71;99444.81;5076921;28;20101;-74
2024/03/26 05:38:08;;;;;;;15.15;8.00;;;;;;;8.59;53.59;99444.66;5075868;28;20044;-75
2024/03/26 05:40:34;;;;;;;13.18;8.05;;;;;;;8.89;52.98;99440.09;5060386;28;20140;-73
2024/03/26 05:43:00;;;;;;;11.65;7.55;;;;;;;9.19;52.63;99395.72;5047799;28;20039;-74
2024/03/26 05:45:27;;;;;;;16.45;8.95;;;;;;;10.02;51.97;99434.66;5073209;28;20104;-75
2024/03/26 05:47:53;;;;;;;14.88;8.63;;;;;;;10.47;50.42;99450.56;5072804;28;20136;-75
2024/03/26 05:50:19;;;;;;;19.20;8.85;;;;;;;10.90;50.44;99454.25;5075147;28;20047;-75
2024/03/26 05:52:47;;;;;;;16.48;9.15;;;;;;;11.50;49.42;99441.13;5057058;28;20127;-76
2024/03/26 05:55:13;;;;;;;18.60;8.93;;;;;;;12.13;48.14;99444.25;5075279;28;20711;-75
2024/03/26 05:57:39;;;;;;;15.32;7.40;;;;;;;12.62;47.29;99443.19;5057733;28;20040;-78
2024/03/26 06:00:08;;;;;;;11.77;7.25;;;;;;;12.64;46.31;99409.22;5045030;28;20045;-79
2024/03/26 06:02:34;;;;;;;12.90;6.30;;;;;;;12.76;45.81;99434.16;5067103;28;20461;-74
2024/03/26 06:05:00;;;;;;;12.73;6.57;;;;;;;12.46;45.19;99393.09;5067116;28;20513;-75
2024/03/26 06:07:26;;;;;;;13.40;7.07;;;;;;;12.56;44.60;99396.34;5059582;28;20044;-74
2024/03/26 06:09:51;;;;;;;10.82;6.75;;;;;;;12.55;44.23;99391.19;5052734;28;20569;-76
2024/03/26 06:12:18;;;;;;;11.13;6.20;;;;;;;12.90;43.76;99442.56;5035983;28;20112;-72
2024/03/26 06:14:43;;;;;;;13.02;6.35;;;;;;;12.71;42.86;99420.38;5046155;28;20040;-76
2024/03/26 06:17:09;;;;;;;12.30;6.65;;;;;;;12.83;43.66;99427.91;5081795;28;20032;-69
2024/03/26 06:19:35;;;;;;;12.38;6.78;;;;;;;12.76;43.21;99389.78;5080414;28;20072;-72
2024/03/26 06:22:01;;;;;;;8.60;6.07;;;;;;;13.26;42.96;99420.75;5062902;28;20036;-70
2024/03/26 06:24:28;;;;;;;11.73;6.32;;;;;;;13.67;42.60;99426.69;5047393;28;20052;-77
2024/03/26 06:26:53;;;;;;;13.48;6.18;;;;;;;14.01;42.40;99424.88;5079521;28;20603;-70
2024/03/26 06:29:19;;;;;;;9.80;5.50;;;;;;;14.27;41.52;99403.16;5061127;28;20042;-71
2024/03/26 06:31:45;;;;;;;7.97;5.60;;;;;;;14.93;41.35;99435.19;5062248;28;20039;-71
2024/03/26 06:34:11;;;;;;;13.30;6.00;;;;;;;15.31;40.58;99436.53;5076521;28;20040;-69
2024/03/26 06:36:37;;;;;;;9.02;5.57;;;;;;;15.48;39.93;99430.69;5060362;28;20639;-71
2024/03/26 06:39:04;;;;;;;11.02;5.32;;;;;;;15.63;39.65;99405.69;5076227;28;20074;-70
2024/03/26 06:41:30;;;;;;;8.07;5.20;;;;;;;16.19;38.74;99415.94;5031234;28;20036;-76
2024/03/26 06:43:57;;;;;;;9.55;4.85;;;;;;;16.54;38.20;99385.69;5043732;28;20032;-70
2024/03/26 06:46:23;;;;;;;14.52;4.82;;;;;;;17.14;37.41;99416.53;5076012;28;20058;-71
2024/03/26 06:48:50;;;;;;;6.45;4.18;;;;;;;17.43;36.66;99424.97;5056547;28;20043;-71
2024/03/26 06:51:18;;;;;;;7.55;4.53;;;;;;;17.65;36.50;99404.78;5057914;28;20418;-69
2024/03/26 06:53:44;;;;;;;10.38;5.35;;;;;;;18.18;35.73;99421.72;5040767;28;20044;-70
2024/03/26 06:56:11;;;;;;;7.30;4.70;;;;;;;19.02;35.58;99410.69;5046005;28;20063;-71
2024/03/26 06:58:39;;;;;;;11.32;4.68;;;;;;;20.30;34.16;99404.91;5074764;28;20040;-83
2024/03/26 07:01:05;;;;;;;7.90;4.40;;;;;;;21.88;33.34;99411.66;5061419;28;20072;-84
2024/03/26 07:03:35;;;;;;;7.20;4.43;;;;;;;23.26;31.81;99417.88;5041259;28;20394;-75
2024/03/26 07:06:01;;;;;;;7.00;4.00;;;;;;;24.21;30.84;99388.28;5074304;28;20087;-71
2024/03/26 07:08:27;;;;;;;7.93;3.65;;;;;;;24.25;29.01;99376.47;5059381;28;20549;-73
2024/03/26 07:10:53;;;;;;;5.45;4.05;;;;;;;23.31;28.04;99416.63;5042473;28;20690;-78
2024/03/26 07:13:19;;;;;;;8.40;3.85;;;;;;;22.33;28.47;99402.69;5027406;28;20138;-72
2024/03/26 07:15:46;;;;;;;5.85;3.85;;;;;;;22.25;29.01;99419.91;5062708;28;20051;-73
2024/03/26 07:18:12;;;;;;;5.45;3.78;;;;;;;21.77;28.38;99414.09;5039363;28;20044;-73
2024/03/26 07:20:38;;;;;;;7.30;3.58;;;;;;;21.70;28.31;99399.56;5052196;28;20113;-73
2024/03/26 07:23:04;;;;;;;4.32;2.65;;;;;;;21.51;28.91;99425.31;5054041;28;20051;-73
2024/03/26 07:25:30;;;;;;;4.57;3.17;;;;;;;21.22;28.26;99411.19;5053401;28;20452;-74
2024/03/26 07:27:56;;;;;;;7.72;2.90;;;;;;;21.16;28.29;99404.47;5072589;28;20036;-72
2024/03/26 07:30:22;;;;;;;6.90;3.70;;;;;;;21.02;28.27;99401.75;5054492;28;20045;-70
2024/03/26 07:32:48;;;;;;;6.30;3.30;;;;;;;21.63;27.82;99438.75;5074404;28;20040;-74
2024/03/26 07:35:15;;;;;;;5.65;3.33;;;;;;;21.73;28.15;99417.91;5042315;28;20044;-86
2024/03/26 07:37:41;;;;;;;7.05;3.35;;;;;;;21.52;27.69;99415.56;5059052;28;20079;-75
2024/03/26 07:40:09;;;;;;;8.27;3.55;;;;;;;21.78;27.59;99392.84;5056474;28;20518;-72
2024/03/26 07:42:35;;;;;;;7.40;2.78;;;;;;;21.54;26.52;99441.94;5045204;28;20058;-73
2024/03/26 07:45:01;;;;;;;3.88;2.70;;;;;;;20.87;27.85;99440.53;5046414;28;20787;-73
2024/03/26 07:47:30;;;;;;;5.03;2.53;;;;;;;20.74;28.34;99409.47;5042603;28;20036;-70
2024/03/26 07:49:57;;;;;;;3.63;2.33;;;;;;;20.36;28.09;99446.00;5025376;28;20040;-70
2024/03/26 07:52:24;;;;;;;3.97;2.33;;;;;;;20.65;28.00;99435.59;5056585;28;20083;-72
2024/03/26 07:54:50;;;;;;;4.70;2.42;;;;;;;19.89;29.00;99431.81;5055655;28;20036;-73
2024/03/26 07:57:16;;;;;;;3.60;2.22;;;;;;;19.76;28.75;99444.75;5053335;28;20556;-73
2024/03/26 07:59:43;;;;;;;5.07;2.08;;;;;;;19.96;29.06;99439.31;5043640;28;20430;-72
2024/03/26 08:02:11;;;;;;;3.67;2.30;;;;;;;19.77;28.84;99415.63;5040528;28;20122;-72
2024/03/26 08:04:42;;;;;;;4.78;2.58;;;;;;;19.83;28.02;99401.28;5036802;28;20190;-74
2024/03/26 08:07:09;;;;;;;6.30;2.83;;;;;;;19.63;29.13;99441.91;5028797;28;20032;-72
2024/03/26 08:09:35;;;;;;;5.72;3.10;;;;;;;19.86;29.30;99444.19;5051969;28;20517;-70
2024/03/26 08:12:01;;;;;;;8.38;3.33;;;;;;;19.95;28.67;99442.03;5056156;28;20040;-72
2024/03/26 08:14:27;;;;;;;7.05;3.05;;;;;;;19.97;29.05;99442.81;5052324;28;20071;-72
2024/03/26 08:16:53;;;;;;;4.45;2.65;;;;;;;19.99;29.26;99446.19;5043761;28;20040;-73
2024/03/26 08:19:20;;;;;;;4.13;2.17;;;;;;;20.44;29.22;99427.94;5059290;28;20067;-72
2024/03/26 08:21:46;;;;;;;5.32;2.97;;;;;;;21.27;29.07;99437.34;5062287;28;20402;-74
2024/03/26 08:24:12;;;;;;;6.32;2.20;;;;;;;21.71;28.38;99399.44;5029414;28;20078;-73
2024/03/26 08:26:38;;;;;;;5.65;2.50;;;;;;;22.31;27.68;99412.53;5029880;28;20041;-72
2024/03/26 08:29:05;;;;;;;4.38;2.90;;;;;;;21.84;26.64;99409.28;5059938;28;20036;-71
2024/03/26 08:31:31;;;;;;;4.28;2.40;;;;;;;21.91;27.20;99419.41;5045448;28;20036;-72
2024/03/26 08:33:56;;;;;;;3.53;2.30;;;;;;;21.81;27.66;99439.44;5059771;28;20055;-72
2024/03/26 08:36:23;;;;;;;4.28;2.30;;;;;;;21.66;27.50;99433.28;5045804;28;20514;-72
2024/03/26 08:38:51;;;;;;;7.75;2.88;;;;;;;21.85;26.88;99440.97;5052451;28;20104;-71
2024/03/26 08:41:17;;;;;;;4.90;2.90;;;;;;;21.90;27.53;99433.59;5044265;28;20048;-71
2024/03/26 08:43:43;;;;;;;7.18;3.03;;;;;;;21.17;25.44;99418.53;5056519;28;20195;-71
2024/03/26 08:46:11;;;;;;;4.03;2.80;;;;;;;20.04;27.91;99436.25;5031301;28;20055;-72
2024/03/26 08:48:38;;;;;;;4.65;2.97;;;;;;;20.21;27.78;99411.56;5053326;28;20142;-72
2024/03/26 08:51:04;;;;;;;4.68;3.05;;;;;;;20.34;27.68;99443.44;5054293;28;20039;-73
2024/03/26 08:53:31;;;;;;;4.00;2.50;;;;;;;20.06;28.44;99420.34;5053892;28;20510;-72
2024/03/26 08:55:57;;;;;;;7.82;3.78;;;;;;;20.42;27.99;99435.94;5059124;28;20686;-73
2024/03/26 08:58:25;;;;;;;7.30;3.47;;;;;;;20.46;28.04;99439.28;5054828;28;20040;-71
2024/03/26 09:00:52;;;;;;;5.60;2.70;;;;;;;20.11;27.80;99436.75;5026568;28;20070;-73
2024/03/26 09:03:18;;;;;;;3.47;2.40;;;;;;;20.00;29.06;99448.78;5071784;28;20047;-73
2024/03/26 09:05:44;;;;;;;5.18;3.00;;;;;;;20.07;27.15;99425.53;5039643;28;20051;-71
2024/03/26 09:08:10;;;;;;;5.55;2.63;;;;;;;20.32;28.65;99434.75;5055251;28;20101;-72
2024/03/26 09:10:36;;;;;;;5.53;3.10;;;;;;;20.60;27.71;99426.13;5054663;28;20044;-73
2024/03/26 09:13:02;;;;;;;5.05;2.53;;;;;;;19.97;27.90;99413.78;5048599;28;20044;-71
2024/03/26 09:15:28;;;;;;;5.38;2.78;;;;;;;19.86;28.61;99415.16;5056465;28;20094;-72
2024/03/26 09:17:55;;;;;;;4.03;2.53;;;;;;;19.99;28.65;99441.78;5044145;28;20087;-71
2024/03/26 09:20:21;;;;;;;4.50;2.97;;;;;;;19.99;28.63;99422.44;5048454;28;20044;-73
2024/03/26 09:22:47;;;;;;;7.13;3.00;;;;;;;20.10;28.72;99441.22;5046685;28;20037;-73
2024/03/26 09:25:13;;;;;;;4.22;2.72;;;;;;;20.12;28.41;99446.41;5072854;28;20387;-72
2024/03/26 09:27:39;;;;;;;4.05;2.63;;;;;;;19.89;27.83;99458.19;5054075;28;20051;-73
2024/03/26 09:30:05;;;;;;;4.63;2.53;;;;;;;18.93;28.45;99450.66;5040038;28;20144;-73
2024/03/26 09:32:34;;;;;;;4.45;2.22;;;;;;;18.18;28.63;99440.16;5043478;28;20040;-74
2024/03/26 09:35:00;;;;;;;2.33;2.13;;;;;;;18.39;30.03;99432.16;5058978;28;20088;-77
2024/03/26 09:37:26;;;;;;;4.32;1.73;;;;;;;18.31;29.54;99398.28;5046258;28;20121;-75
2024/03/26 09:39:52;;;;;;;2.90;2.00;;;;;;;17.88;28.94;99424.78;5084492;28;20045;-75
2024/03/26 09:42:19;;;;;;;2.55;1.83;;;;;;;17.80;29.33;99425.13;5078136;28;20028;-75
2024/03/26 09:44:45;;;;;;;3.97;2.53;;;;;;;17.90;29.71;99384.31;5048889;28;20131;-75
2024/03/26 09:47:12;;;;;;;3.10;1.70;;;;;;;19.44;30.44;99427.03;5034590;28;20032;-76
2024/03/26 09:49:40;;;;;;;4.00;1.92;;;;;;;20.90;29.70;99435.94;5047641;28;20043;-74
2024/03/26 09:52:09;;;;;;;3.03;1.90;;;;;;;22.03;29.12;99420.44;5035426;28;20025;-77
2024/03/26 09:54:37;;;;;;;2.83;2.08;;;;;;;22.46;27.90;99416.88;5069152;28;20611;-74
2024/03/26 09:57:03;;;;;;;4.30;2.38;;;;;;;22.66;25.81;99407.63;5073856;28;20036;-74
2024/03/26 09:59:29;;;;;;;4.13;2.00;;;;;;;22.09;25.01;99421.84;5040007;28;20056;-74
2024/03/26 10:02:07;;;;;;;3.97;2.10;;;;;;;21.62;27.55;99390.28;5052367;28;20041;-78
2024/03/26 10:04:34;;;;;;;10.82;2.58;;;;;;;22.61;28.18;99414.19;5085009;28;20059;-76
2024/03/26 10:07:00;;;;;;;2.78;2.10;;;;;;;23.08;25.73;99394.25;5063213;28;20028;-74
2024/03/26 10:09:27;;;;;;;5.90;2.80;;;;;;;23.31;26.04;99363.53;5049348;28;20146;-74
2024/03/26 10:11:53;;;;;;;6.57;3.15;;;;;;;24.30;26.09;99406.22;5057444;28;20039;-74
2024/03/26 10:14:19;;;;;;;7.70;3.10;;;;;;;24.60;25.41;99361.53;5050151;28;20036;-75
2024/03/26 10:16:45;;;;;;;4.38;2.67;;;;;;;24.16;24.62;99398.41;5065977;28;20040;-75
2024/03/26 10:19:11;;;;;;;5.13;2.20;;;;;;;24.18;25.16;99409.75;5047358;28;20117;-76
2024/03/26 10:21:46;;;;;;;6.13;2.78;;;;;;;23.75;24.32;99371.97;5047037;28;20047;-76
2024/03/26 10:24:12;;;;;;;3.97;2.65;;;;;;;22.69;24.72;99420.69;5054142;28;20417;-74
2024/03/26 10:26:38;;;;;;;5.78;2.03;;;;;;;21.57;25.21;99418.78;5054519;28;20040;-76
2024/03/26 10:29:05;;;;;;;3.80;1.88;;;;;;;21.30;26.04;99387.75;5060409;28;20044;-76
2024/03/26 10:31:44;;;;;;;4.60;2.30;;;;;;;21.05;26.29;99402.47;5047858;28;20028;-75
2024/03/26 10:34:12;;;;;;;3.53;2.30;;;;;;;20.64;27.07;99391.59;5046795;28;20036;-75
2024/03/26 10:36:42;;;;;;;4.10;2.70;;;;;;;20.16;26.87;99377.50;5041879;28;20135;-77
2024/03/26 10:39:13;;;;;;;7.72;2.97;;;;;;;20.27;27.25;99410.38;5045420;28;20055;-76
2024/03/26 10:41:41;;;;;;;3.85;2.47;;;;;;;19.55;26.76;99414.13;5034759;28;20115;-84
2024/03/26 10:44:09;;;;;;;3.35;1.92;;;;;;;19.25;27.71;99390.19;5063810;28;20046;-79
2024/03/26 10:46:37;;;;;;;4.63;1.92;;;;;;;19.25;27.79;99396.34;5045346;28;20063;-76
2024/03/26 10:49:05;;;;;;;3.17;1.90;;;;;;;19.25;27.89;99400.75;5042361;28;20036;-77
2024/03/26 10:51:32;;;;;;;2.97;2.03;;;;;;;18.29;28.19;99395.72;5043434;28;20047;-76
2024/03/26 10:54:01;;;;;;;4.43;1.98;;;;;;;18.13;28.77;99373.69;5053039;28;20055;-75
2024/03/26 10:56:29;;;;;;;3.50;1.70;;;;;;;18.41;28.96;99385.53;5046662;28;20043;-75
2024/03/26 10:59:00;;;;;;;3.63;1.77;;;;;;;18.49;28.90;99388.63;5045665;28;20036;-76
2024/03/26 11:01:30;;;;;;;4.90;2.78;;;;;;;18.35;29.34;99358.56;5029900;28;20040;-76
2024/03/26 11:03:57;;;;;;;5.20;2.85;;;;;;;18.71;29.07;99406.03;5022408;28;20040;-76
2024/03/26 11:06:24;;;;;;;3.75;1.77;;;;;;;18.58;29.33;99389.97;5048007;28;20048;-74
2024/03/26 11:09:16;;;;;;;5.85;2.47;;;;;;;18.52;29.42;99413.06;5015314;28;20033;-74
2024/03/26 11:11:48;;;;;;;2.13;1.90;;;;;;;18.25;29.35;99394.16;5046621;28;20565;-75
2024/03/26 11:14:15;;;;;;;4.90;3.10;;;;;;;18.06;29.73;99421.34;5081933;28;20036;-75
2024/03/26 11:16:42;;;;;;;3.85;1.88;;;;;;;17.84;29.79;99383.72;5044903;28;20406;-77
2024/03/26 11:19:25;;;;;;;2.40;1.75;;;;;;;17.67;29.88;99384.50;5047334;28;20134;-78
2024/03/26 11:21:55;;;;;;;2.17;1.67;;;;;;;17.68;29.88;99415.13;5060116;28;20047;-76
2024/03/26 11:24:31;;;;;;;1.75;1.60;;;;;;;17.21;29.82;99363.72;5061812;28;20127;-75
2024/03/26 11:26:59;;;;;;;3.50;1.92;;;;;;;17.09;30.01;99396.63;5071536;28;20514;-75
2024/03/26 11:29:26;;;;;;;3.83;1.92;;;;;;;16.82;30.23;99374.06;5046750;28;20093;-77